Time;durP1;ratioP1;P1;durP2;ratioP2;P2;SDS_P1;SDS_P2;PMS_P1;PMS_P2;Temp;Humidity;BMP_temperature;BMP_pressure;BME280_temperature;BME280_humidity;BME280_pressure;Samples;Min_cycle;Max_cycle;Signal;HPM_P1;HPM_P2
2021/05/06 01:13:12;;;;;;;3.37;2.70;;;;;;;6.72;86.05;99255.19;20954758;28;20307;-66
2021/05/06 01:23:12;;;;;;;4.70;2.43;;;;;;;6.73;84.62;99254.25;20942025;28;20329;-61
2021/05/06 01:33:18;;;;;;;4.90;1.93;;;;;;;6.87;83.60;99285.16;20946889;28;20308;-62
2021/05/06 02:13:51;;;;;;;2.03;1.40;;;;;;;6.39;83.32;99278.56;20775130;28;20925;-68
2021/05/06 02:23:51;;;;;;;4.60;1.70;;;;;;;6.32;83.90;99293.13;20791149;28;20212;-62
2021/05/06 02:33:52;;;;;;;4.33;2.00;;;;;;;6.18;86.50;99306.41;20842814;28;20208;-61
2021/05/06 02:43:54;;;;;;;2.53;2.00;;;;;;;6.05;88.25;99296.56;20870944;28;20538;-60
2021/05/06 02:53:56;;;;;;;2.90;2.00;;;;;;;6.07;88.05;99326.47;20843912;28;20212;-62
2021/05/06 03:04:01;;;;;;;4.33;2.20;;;;;;;6.04;84.54;99316.03;20867474;28;20794;-61
2021/05/06 03:24:09;;;;;;;4.00;1.80;;;;;;;6.08;81.51;99364.38;20809143;28;20248;-60
2021/05/06 03:44:44;;;;;;;3.80;1.67;;;;;;;6.85;79.29;99403.72;20794807;28;20220;-64
2021/05/06 04:16:00;;;;;;;5.50;2.70;;;;;;;7.93;76.97;99455.84;20892188;28;20212;-63
2021/05/06 04:26:10;;;;;;;5.57;2.70;;;;;;;7.77;76.93;99446.34;20870042;28;20226;-61
2021/05/06 04:36:16;;;;;;;5.47;2.37;;;;;;;7.55;76.05;99469.00;20880650;28;20755;-62
2021/05/06 05:06:34;;;;;;;5.33;2.50;;;;;;;7.21;73.52;99459.72;20849169;28;20318;-64
2021/05/06 05:27:01;;;;;;;5.27;2.50;;;;;;;7.19;76.69;99503.22;20767917;28;20250;-62
2021/05/06 05:37:03;;;;;;;5.63;2.10;;;;;;;7.32;75.10;99508.59;20811425;28;20220;-57
2021/05/06 05:57:10;;;;;;;9.20;2.30;;;;;;;7.50;71.25;99534.81;20811790;28;20274;-60
2021/05/06 06:07:11;;;;;;;8.23;2.80;;;;;;;7.46;70.59;99508.56;20789136;28;20232;-61
2021/05/06 06:27:06;;;;;;;5.70;2.50;;;;;;;7.88;68.83;99531.47;21064814;27;20571;-62
2021/05/06 06:37:07;;;;;;;6.33;2.80;;;;;;;7.99;67.22;99523.63;21037889;27;20221;-64
2021/05/06 06:47:08;;;;;;;6.10;2.90;;;;;;;8.18;69.84;99565.78;21031026;27;20215;-63
2021/05/06 06:57:09;;;;;;;4.73;2.57;;;;;;;8.39;67.70;99528.97;21042832;27;20223;-62
2021/05/06 07:07:09;;;;;;;4.43;2.20;;;;;;;8.52;67.31;99562.59;21034846;27;20219;-62
2021/05/06 07:17:11;;;;;;;8.47;2.30;;;;;;;8.70;67.31;99580.91;21069996;27;20212;-61
2021/05/06 07:27:11;;;;;;;4.13;2.20;;;;;;;8.69;65.80;99606.69;21033020;27;20602;-63
2021/05/06 07:37:12;;;;;;;7.10;2.10;;;;;;;8.98;64.49;99613.50;21000604;27;20267;-62
2021/05/06 07:47:12;;;;;;;5.13;2.43;;;;;;;9.27;62.74;99597.31;20972113;28;21019;-63
2021/05/06 07:57:13;;;;;;;6.83;2.33;;;;;;;9.50;61.25;99615.19;20974537;28;20297;-63
2021/05/06 08:07:14;;;;;;;5.00;2.20;;;;;;;9.78;60.46;99599.91;20975173;28;20714;-64
2021/05/06 08:17:14;;;;;;;5.17;2.33;;;;;;;9.96;58.17;99611.88;20966962;28;20338;-64
2021/05/06 08:27:15;;;;;;;9.77;2.67;;;;;;;9.77;59.70;99628.34;20983239;28;20224;-63
2021/05/06 08:37:16;;;;;;;3.07;2.00;;;;;;;10.17;59.08;99644.94;20962000;28;20214;-63
2021/05/06 08:47:23;;;;;;;5.70;2.43;;;;;;;10.41;57.78;99661.84;20980168;28;20478;-63
2021/05/06 08:57:25;;;;;;;5.23;2.47;;;;;;;10.45;57.73;99651.81;20962430;28;20242;-65
2021/05/06 09:07:30;;;;;;;6.20;2.43;;;;;;;10.49;56.12;99657.78;20979233;28;20237;-63
2021/05/06 09:17:33;;;;;;;7.83;2.73;;;;;;;11.01;56.82;99647.50;20966756;28;20235;-63
2021/05/06 09:27:33;;;;;;;9.70;2.90;;;;;;;11.12;56.30;99668.03;20973504;28;20672;-65
2021/05/06 09:37:38;;;;;;;4.07;2.20;;;;;;;11.59;56.46;99659.03;20971955;28;20234;-65
2021/05/06 09:47:39;;;;;;;3.93;1.80;;;;;;;11.85;54.48;99657.81;20979778;28;20229;-64
2021/05/06 09:57:39;;;;;;;4.17;2.40;;;;;;;11.45;52.93;99664.59;20985803;28;20226;-65
2021/05/06 10:07:55;;;;;;;3.33;2.03;;;;;;;11.77;51.65;99673.63;20967292;28;20222;-63
2021/05/06 10:17:56;;;;;;;5.10;2.17;;;;;;;12.26;55.18;99656.28;20986821;28;20319;-64
2021/05/06 10:27:57;;;;;;;3.57;1.93;;;;;;;12.07;51.85;99682.84;20959630;28;20322;-64
2021/05/06 10:37:59;;;;;;;2.83;1.87;;;;;;;11.88;50.83;99672.75;20977388;28;20226;-64
2021/05/06 10:48:00;;;;;;;6.57;3.00;;;;;;;12.16;49.78;99676.75;20996409;28;20222;-65
2021/05/06 10:58:25;;;;;;;2.90;1.87;;;;;;;12.57;49.44;99687.56;20973676;28;20305;-64
2021/05/06 11:08:28;;;;;;;4.20;1.90;;;;;;;12.69;48.70;99668.78;21006002;28;20218;-64
2021/05/06 11:18:51;;;;;;;2.50;1.53;;;;;;;12.70;46.07;99681.19;20982919;28;20231;-65
2021/05/06 11:28:52;;;;;;;5.93;2.40;;;;;;;12.92;48.81;99673.09;20978772;28;20224;-65
2021/05/06 11:38:54;;;;;;;3.40;1.90;;;;;;;13.42;45.28;99662.56;21014110;28;20223;-65
2021/05/06 11:48:59;;;;;;;5.67;2.10;;;;;;;13.53;46.42;99691.97;21014052;28;20673;-66
2021/05/06 11:59:00;;;;;;;3.43;2.57;;;;;;;13.24;45.20;99660.53;20992086;28;20221;-63
2021/05/06 12:09:05;;;;;;;3.73;2.60;;;;;;;13.38;44.84;99662.00;20999233;28;20229;-66
2021/05/06 12:19:07;;;;;;;3.00;1.87;;;;;;;13.60;43.82;99634.19;20975598;28;20293;-66
2021/05/06 12:29:19;;;;;;;4.40;2.43;;;;;;;13.90;44.51;99650.25;20969830;28;20281;-66
2021/05/06 12:39:20;;;;;;;3.67;2.30;;;;;;;14.23;43.88;99653.59;20930574;28;20617;-71
2021/05/06 12:49:23;;;;;;;3.23;2.50;;;;;;;13.78;45.95;99621.81;20934293;28;20668;-67
2021/05/06 12:59:27;;;;;;;4.10;2.70;;;;;;;13.83;44.57;99635.69;20912848;28;20298;-68
2021/05/06 13:09:39;;;;;;;2.43;1.77;;;;;;;14.38;48.99;99654.88;20909629;28;20698;-66
2021/05/06 13:19:40;;;;;;;3.53;2.40;;;;;;;14.45;45.04;99621.16;20917774;28;20253;-66
2021/05/06 13:29:57;;;;;;;5.33;2.00;;;;;;;13.93;46.78;99641.94;20899454;28;20218;-66
2021/05/06 13:39:57;;;;;;;1.63;1.40;;;;;;;14.63;46.05;99640.94;20914589;28;20227;-67
2021/05/06 13:49:58;;;;;;;2.03;1.50;;;;;;;14.24;45.85;99625.78;20896093;28;20746;-66
2021/05/06 13:59:59;;;;;;;2.00;1.90;;;;;;;13.81;44.25;99626.94;20913397;28;20332;-67
2021/05/06 14:09:59;;;;;;;2.40;2.10;;;;;;;13.43;45.44;99624.94;20909625;28;20229;-68
2021/05/06 14:20:00;;;;;;;2.27;1.90;;;;;;;13.42;45.74;99642.00;20911193;28;20246;-68
2021/05/06 14:30:00;;;;;;;2.03;1.83;;;;;;;13.44;45.79;99628.47;20911429;28;20598;-65
2021/05/06 14:40:02;;;;;;;3.07;1.60;;;;;;;13.32;46.88;99609.78;20883909;28;20646;-66
2021/05/06 14:50:12;;;;;;;5.80;2.10;;;;;;;13.48;42.38;99624.53;20909491;28;20224;-66
2021/05/06 15:00:13;;;;;;;2.70;2.00;;;;;;;13.96;47.44;99614.84;20877551;28;20234;-66
2021/05/06 15:10:14;;;;;;;5.07;3.00;;;;;;;14.21;45.74;99607.25;20913242;28;20218;-66
2021/05/06 15:20:14;;;;;;;2.47;2.17;;;;;;;13.76;45.29;99597.00;20877161;28;20235;-66
2021/05/06 15:30:17;;;;;;;16.90;7.03;;;;;;;13.42;46.43;99592.91;20956747;28;20234;-67
2021/05/06 15:40:18;;;;;;;3.73;2.90;;;;;;;13.37;48.07;99579.06;20991231;28;20221;-66
2021/05/06 15:50:18;;;;;;;3.60;2.28;;;;;;;13.12;48.02;99586.53;20972298;28;20898;-64
2021/05/06 16:00:20;;;;;;;4.50;3.30;;;;;;;12.78;47.58;99599.28;20967668;28;20289;-65
2021/05/06 16:10:21;;;;;;;8.40;4.30;;;;;;;12.13;50.99;99619.00;20947959;28;20222;-65
2021/05/06 16:20:28;;;;;;;3.30;3.00;;;;;;;10.86;60.97;99683.41;20988225;28;20215;-66
2021/05/06 16:30:29;;;;;;;3.70;3.23;;;;;;;11.02;61.17;99630.53;20955285;28;20250;-67
2021/05/06 16:50:30;;;;;;;6.78;3.85;;;;;;;11.57;61.61;99604.84;20976000;28;20543;-65
2021/05/06 17:00:34;;;;;;;2.60;2.40;;;;;;;11.85;61.26;99577.59;20971166;28;20219;-67
2021/05/06 17:10:36;;;;;;;3.33;2.60;;;;;;;13.01;59.86;99604.50;20951686;28;20215;-66
2021/05/06 17:20:36;;;;;;;3.23;2.70;;;;;;;13.15;57.46;99597.03;20968605;27;20227;-64
2021/05/06 17:30:37;;;;;;;3.40;3.10;;;;;;;12.39;58.31;99608.81;20959357;28;20336;-66
2021/05/06 17:40:37;;;;;;;4.50;3.20;;;;;;;10.99;61.51;99609.41;20960776;28;21021;-69
2021/05/06 17:50:37;;;;;;;3.43;3.13;;;;;;;10.06;65.76;99613.75;20965614;28;20215;-66
2021/05/06 18:00:38;;;;;;;4.73;3.00;;;;;;;9.42;69.15;99606.88;20953056;28;20215;-67
2021/05/06 18:20:42;;;;;;;4.50;3.67;;;;;;;8.86;75.43;99609.03;20978395;28;20220;-65
2021/05/06 18:30:42;;;;;;;6.77;5.60;;;;;;;9.03;77.99;99643.31;20955379;28;20221;-65
2021/05/06 18:40:43;;;;;;;7.73;6.00;;;;;;;8.99;74.89;99678.22;20957436;28;20704;-63
2021/05/06 18:50:44;;;;;;;4.10;3.70;;;;;;;8.45;75.13;99645.56;20961169;28;20217;-63
2021/05/06 19:00:44;;;;;;;5.17;4.37;;;;;;;7.79;79.48;99647.13;20893218;28;20703;-66
2021/05/06 19:10:46;;;;;;;2.27;2.17;;;;;;;7.29;82.75;99652.94;20905299;28;21168;-64
2021/05/06 19:20:46;;;;;;;3.30;2.67;;;;;;;7.10;85.56;99633.81;20887041;28;20237;-66
2021/05/06 19:30:47;;;;;;;8.37;5.73;;;;;;;7.26;87.29;99626.59;20936644;28;20211;-65
2021/05/06 19:40:48;;;;;;;3.72;3.10;;;;;;;7.52;87.20;99654.16;20959719;28;20219;-67
2021/05/06 19:50:49;;;;;;;2.50;2.30;;;;;;;7.72;87.29;99640.50;20975376;28;20215;-66
2021/05/06 20:00:49;;;;;;;2.83;2.27;;;;;;;7.64;85.79;99647.25;20965258;28;20597;-66
2021/05/06 20:10:50;;;;;;;2.80;2.60;;;;;;;6.91;88.56;99644.66;20923507;28;20214;-66
2021/05/06 20:31:10;;;;;;;4.43;3.90;;;;;;;6.18;96.22;99650.75;20959530;28;20219;-67
2021/05/06 20:41:10;;;;;;;5.03;3.60;;;;;;;5.94;98.58;99666.22;20918380;28;20230;-64
2021/05/06 20:51:11;;;;;;;6.60;4.73;;;;;;;5.92;100.00;99660.16;20898001;28;20230;-65
2021/05/06 21:01:11;;;;;;;8.83;6.23;;;;;;;6.13;100.00;99658.97;20914451;28;20329;-65
2021/05/06 21:11:12;;;;;;;8.67;6.17;;;;;;;6.33;100.00;99647.22;20888059;28;20461;-65
2021/05/06 21:21:13;;;;;;;8.83;6.07;;;;;;;6.55;100.00;99649.47;20909119;28;20479;-65
2021/05/06 21:31:15;;;;;;;7.00;5.73;;;;;;;6.83;99.82;99644.25;20895704;28;20223;-64
2021/05/06 21:41:16;;;;;;;6.20;5.30;;;;;;;7.05;98.64;99633.22;20901585;28;20248;-62
2021/05/06 21:51:17;;;;;;;5.87;5.00;;;;;;;7.32;98.96;99635.97;20906878;28;20223;-67
2021/05/06 22:01:18;;;;;;;10.67;6.90;;;;;;;7.39;98.76;99585.06;20868453;28;20228;-66
2021/05/06 22:11:18;;;;;;;8.67;6.23;;;;;;;7.50;98.52;99587.91;20881404;28;20223;-66
2021/05/06 22:21:25;;;;;;;8.23;6.87;;;;;;;7.34;98.77;99565.94;20862015;28;20868;-67
2021/05/06 22:31:25;;;;;;;9.00;7.13;;;;;;;7.20;100.00;99560.66;20885137;28;20220;-68
2021/05/06 22:41:26;;;;;;;6.10;5.13;;;;;;;7.26;99.90;99562.91;20863933;28;20233;-68
2021/05/06 22:51:26;;;;;;;5.33;4.83;;;;;;;7.47;99.22;99572.19;20884472;28;20220;-67
2021/05/06 23:11:26;;;;;;;5.60;5.10;;;;;;;7.57;100.00;99536.13;20966006;27;20531;-68
2021/05/06 23:21:27;;;;;;;5.97;4.87;;;;;;;7.54;100.00;99525.69;20947975;28;20225;-65
2021/05/06 23:31:29;;;;;;;5.13;3.90;;;;;;;7.56;96.83;99523.81;20943760;28;20914;-67
2021/05/06 23:41:29;;;;;;;11.17;6.40;;;;;;;7.72;98.33;99534.28;20952433;28;20223;-67
2021/05/06 23:51:29;;;;;;;6.37;5.43;;;;;;;7.71;98.68;99526.41;20933897;28;20215;-66
